sensor_id;sensor_type;location;lat;lon;timestamp;P1;durP1;ratioP1;P2;durP2;ratioP2
24559;SDS011;12727;49.934;8.656;2023-04-02T00:01:02;3.80;;;2.40;;
24559;SDS011;12727;49.934;8.656;2023-04-02T00:08:49;2.80;;;2.47;;
24559;SDS011;12727;49.934;8.656;2023-04-02T00:11:25;3.20;;;2.63;;
24559;SDS011;12727;49.934;8.656;2023-04-02T00:14:04;5.63;;;2.78;;
24559;SDS011;12727;49.934;8.656;2023-04-02T00:16:39;6.43;;;3.60;;
24559;SDS011;12727;49.934;8.656;2023-04-02T00:19:05;4.18;;;3.28;;
24559;SDS011;12727;49.934;8.656;2023-04-02T00:21:36;4.05;;;3.42;;
24559;SDS011;12727;49.934;8.656;2023-04-02T00:24:15;7.45;;;4.22;;
24559;SDS011;12727;49.934;8.656;2023-04-02T00:26:44;5.28;;;4.15;;
24559;SDS011;12727;49.934;8.656;2023-04-02T00:29:14;7.57;;;4.45;;
24559;SDS011;12727;49.934;8.656;2023-04-02T00:31:42;9.73;;;5.45;;
24559;SDS011;12727;49.934;8.656;2023-04-02T00:34:15;8.45;;;6.25;;
24559;SDS011;12727;49.934;8.656;2023-04-02T00:36:46;8.40;;;5.38;;
24559;SDS011;12727;49.934;8.656;2023-04-02T00:39:21;9.00;;;6.07;;
24559;SDS011;12727;49.934;8.656;2023-04-02T00:41:50;9.63;;;6.13;;
24559;SDS011;12727;49.934;8.656;2023-04-02T00:44:18;10.40;;;6.63;;
24559;SDS011;12727;49.934;8.656;2023-04-02T00:46:47;9.10;;;6.18;;
24559;SDS011;12727;49.934;8.656;2023-04-02T00:49:22;9.52;;;6.00;;
24559;SDS011;12727;49.934;8.656;2023-04-02T00:51:58;7.72;;;5.22;;
24559;SDS011;12727;49.934;8.656;2023-04-02T00:54:27;6.97;;;5.35;;
24559;SDS011;12727;49.934;8.656;2023-04-02T00:56:56;6.53;;;4.78;;
24559;SDS011;12727;49.934;8.656;2023-04-02T01:02:18;6.47;;;4.90;;
24559;SDS011;12727;49.934;8.656;2023-04-02T01:05:06;7.68;;;4.88;;
24559;SDS011;12727;49.934;8.656;2023-04-02T01:16:05;9.40;;;4.90;;
24559;SDS011;12727;49.934;8.656;2023-04-02T01:19:03;6.57;;;4.60;;
24559;SDS011;12727;49.934;8.656;2023-04-02T01:21:59;8.60;;;4.93;;
24559;SDS011;12727;49.934;8.656;2023-04-02T01:24:33;7.53;;;4.80;;
24559;SDS011;12727;49.934;8.656;2023-04-02T01:27:02;5.90;;;4.43;;
24559;SDS011;12727;49.934;8.656;2023-04-02T01:29:57;7.10;;;4.93;;
24559;SDS011;12727;49.934;8.656;2023-04-02T01:32:25;6.78;;;4.35;;
24559;SDS011;12727;49.934;8.656;2023-04-02T01:34:53;8.10;;;4.70;;
24559;SDS011;12727;49.934;8.656;2023-04-02T01:42:40;6.55;;;4.53;;
24559;SDS011;12727;49.934;8.656;2023-04-02T01:45:16;5.80;;;4.63;;
24559;SDS011;12727;49.934;8.656;2023-04-02T01:47:43;6.20;;;4.53;;
24559;SDS011;12727;49.934;8.656;2023-04-02T01:53:04;6.18;;;4.80;;
24559;SDS011;12727;49.934;8.656;2023-04-02T01:58:10;8.10;;;4.40;;
24559;SDS011;12727;49.934;8.656;2023-04-02T02:00:42;7.03;;;4.63;;
24559;SDS011;12727;49.934;8.656;2023-04-02T02:03:15;8.00;;;5.22;;
24559;SDS011;12727;49.934;8.656;2023-04-02T02:05:41;6.15;;;5.18;;
24559;SDS011;12727;49.934;8.656;2023-04-02T02:08:11;8.32;;;4.85;;
24559;SDS011;12727;49.934;8.656;2023-04-02T02:10:59;6.68;;;4.47;;
24559;SDS011;12727;49.934;8.656;2023-04-02T02:13:26;7.70;;;4.55;;
24559;SDS011;12727;49.934;8.656;2023-04-02T02:15:52;6.63;;;4.30;;
24559;SDS011;12727;49.934;8.656;2023-04-02T02:18:22;6.13;;;4.22;;
24559;SDS011;12727;49.934;8.656;2023-04-02T02:20:49;6.88;;;4.10;;
24559;SDS011;12727;49.934;8.656;2023-04-02T02:23:16;5.72;;;4.55;;
24559;SDS011;12727;49.934;8.656;2023-04-02T02:25:42;9.60;;;4.82;;
24559;SDS011;12727;49.934;8.656;2023-04-02T02:33:15;5.82;;;4.50;;
24559;SDS011;12727;49.934;8.656;2023-04-02T02:35:55;7.20;;;3.72;;
24559;SDS011;12727;49.934;8.656;2023-04-02T02:41:24;6.47;;;4.35;;
24559;SDS011;12727;49.934;8.656;2023-04-02T02:46:39;8.10;;;3.97;;
24559;SDS011;12727;49.934;8.656;2023-04-02T02:49:12;9.13;;;4.32;;
24559;SDS011;12727;49.934;8.656;2023-04-02T02:54:13;6.15;;;4.43;;
24559;SDS011;12727;49.934;8.656;2023-04-02T02:56:44;5.97;;;4.18;;
24559;SDS011;12727;49.934;8.656;2023-04-02T02:59:14;7.07;;;4.22;;
24559;SDS011;12727;49.934;8.656;2023-04-02T03:01:41;6.93;;;4.28;;
24559;SDS011;12727;49.934;8.656;2023-04-02T03:04:08;8.15;;;4.60;;
24559;SDS011;12727;49.934;8.656;2023-04-02T03:06:34;5.38;;;4.15;;
24559;SDS011;12727;49.934;8.656;2023-04-02T03:09:17;9.30;;;4.65;;
24559;SDS011;12727;49.934;8.656;2023-04-02T03:11:58;10.00;;;5.03;;
24559;SDS011;12727;49.934;8.656;2023-04-02T03:14:37;10.55;;;5.22;;
24559;SDS011;12727;49.934;8.656;2023-04-02T03:19:52;14.20;;;5.18;;
24559;SDS011;12727;49.934;8.656;2023-04-02T03:22:33;11.95;;;4.90;;
24559;SDS011;12727;49.934;8.656;2023-04-02T03:27:41;12.57;;;5.30;;
24559;SDS011;12727;49.934;8.656;2023-04-02T03:30:28;10.90;;;4.85;;
24559;SDS011;12727;49.934;8.656;2023-04-02T03:33:02;10.32;;;4.88;;
24559;SDS011;12727;49.934;8.656;2023-04-02T03:35:35;8.45;;;4.60;;
24559;SDS011;12727;49.934;8.656;2023-04-02T03:38:06;12.57;;;4.40;;
24559;SDS011;12727;49.934;8.656;2023-04-02T03:43:29;9.40;;;3.97;;
24559;SDS011;12727;49.934;8.656;2023-04-02T03:46:12;9.30;;;4.57;;
24559;SDS011;12727;49.934;8.656;2023-04-02T03:49:01;7.75;;;4.60;;
24559;SDS011;12727;49.934;8.656;2023-04-02T03:51:36;7.05;;;3.70;;
24559;SDS011;12727;49.934;8.656;2023-04-02T03:54:12;6.25;;;3.58;;
24559;SDS011;12727;49.934;8.656;2023-04-02T03:56:40;4.60;;;3.40;;
24559;SDS011;12727;49.934;8.656;2023-04-02T04:01:45;6.25;;;3.60;;
24559;SDS011;12727;49.934;8.656;2023-04-02T04:04:37;4.47;;;3.05;;
24559;SDS011;12727;49.934;8.656;2023-04-02T04:07:05;7.72;;;2.80;;
24559;SDS011;12727;49.934;8.656;2023-04-02T04:09:40;5.97;;;3.35;;
24559;SDS011;12727;49.934;8.656;2023-04-02T04:14:43;5.97;;;3.05;;
24559;SDS011;12727;49.934;8.656;2023-04-02T04:17:15;5.80;;;3.63;;
24559;SDS011;12727;49.934;8.656;2023-04-02T04:19:57;6.15;;;3.47;;
24559;SDS011;12727;49.934;8.656;2023-04-02T04:22:49;6.55;;;4.00;;
24559;SDS011;12727;49.934;8.656;2023-04-02T04:25:26;7.97;;;3.80;;
24559;SDS011;12727;49.934;8.656;2023-04-02T04:31:27;11.10;;;4.50;;
24559;SDS011;12727;49.934;8.656;2023-04-02T04:33:58;9.32;;;4.80;;
24559;SDS011;12727;49.934;8.656;2023-04-02T04:36:30;7.57;;;3.88;;
24559;SDS011;12727;49.934;8.656;2023-04-02T04:39:05;7.97;;;4.78;;
24559;SDS011;12727;49.934;8.656;2023-04-02T04:41:38;9.85;;;5.47;;
24559;SDS011;12727;49.934;8.656;2023-04-02T04:46:41;8.03;;;6.17;;
24559;SDS011;12727;49.934;8.656;2023-04-02T04:49:18;8.55;;;5.80;;
24559;SDS011;12727;49.934;8.656;2023-04-02T04:51:59;8.95;;;5.60;;
24559;SDS011;12727;49.934;8.656;2023-04-02T04:54:35;8.45;;;5.78;;
24559;SDS011;12727;49.934;8.656;2023-04-02T04:57:03;9.38;;;5.93;;
24559;SDS011;12727;49.934;8.656;2023-04-02T04:59:41;8.68;;;5.75;;
24559;SDS011;12727;49.934;8.656;2023-04-02T05:02:13;10.90;;;6.03;;
24559;SDS011;12727;49.934;8.656;2023-04-02T05:04:47;11.38;;;7.40;;
24559;SDS011;12727;49.934;8.656;2023-04-02T05:10:03;14.00;;;7.65;;
24559;SDS011;12727;49.934;8.656;2023-04-02T05:18:41;14.55;;;8.07;;
24559;SDS011;12727;49.934;8.656;2023-04-02T05:26:58;11.98;;;8.32;;
24559;SDS011;12727;49.934;8.656;2023-04-02T05:29:29;10.48;;;7.90;;
24559;SDS011;12727;49.934;8.656;2023-04-02T05:32:02;11.95;;;7.70;;
24559;SDS011;12727;49.934;8.656;2023-04-02T05:34:37;14.27;;;7.57;;
24559;SDS011;12727;49.934;8.656;2023-04-02T05:37:03;11.38;;;8.05;;
24559;SDS011;12727;49.934;8.656;2023-04-02T05:39:30;13.68;;;8.38;;
24559;SDS011;12727;49.934;8.656;2023-04-02T05:42:00;13.38;;;7.90;;
24559;SDS011;12727;49.934;8.656;2023-04-02T05:44:32;12.93;;;8.45;;
24559;SDS011;12727;49.934;8.656;2023-04-02T05:49:33;15.13;;;7.82;;
24559;SDS011;12727;49.934;8.656;2023-04-02T05:52:03;12.73;;;8.02;;
24559;SDS011;12727;49.934;8.656;2023-04-02T05:54:54;12.48;;;8.40;;
24559;SDS011;12727;49.934;8.656;2023-04-02T05:57:47;12.23;;;8.07;;
24559;SDS011;12727;49.934;8.656;2023-04-02T06:00:21;11.93;;;8.60;;
24559;SDS011;12727;49.934;8.656;2023-04-02T06:02:55;13.38;;;8.27;;
24559;SDS011;12727;49.934;8.656;2023-04-02T06:05:32;10.63;;;7.97;;
24559;SDS011;12727;49.934;8.656;2023-04-02T06:08:07;10.43;;;7.68;;
24559;SDS011;12727;49.934;8.656;2023-04-02T06:10:54;11.48;;;7.47;;
24559;SDS011;12727;49.934;8.656;2023-04-02T06:13:24;10.57;;;7.57;;
24559;SDS011;12727;49.934;8.656;2023-04-02T06:15:51;10.57;;;7.13;;
24559;SDS011;12727;49.934;8.656;2023-04-02T06:18:24;9.73;;;7.75;;
24559;SDS011;12727;49.934;8.656;2023-04-02T06:20:52;11.73;;;7.78;;
24559;SDS011;12727;49.934;8.656;2023-04-02T06:26:07;11.73;;;7.80;;
24559;SDS011;12727;49.934;8.656;2023-04-02T06:28:40;8.68;;;7.07;;
24559;SDS011;12727;49.934;8.656;2023-04-02T06:31:40;9.23;;;6.95;;
24559;SDS011;12727;49.934;8.656;2023-04-02T06:34:20;9.07;;;6.78;;
24559;SDS011;12727;49.934;8.656;2023-04-02T06:36:47;9.05;;;6.50;;
24559;SDS011;12727;49.934;8.656;2023-04-02T06:39:20;7.93;;;6.03;;
24559;SDS011;12727;49.934;8.656;2023-04-02T06:44:44;9.43;;;6.70;;
24559;SDS011;12727;49.934;8.656;2023-04-02T06:47:12;10.23;;;6.55;;
24559;SDS011;12727;49.934;8.656;2023-04-02T06:52:24;10.02;;;6.00;;
24559;SDS011;12727;49.934;8.656;2023-04-02T06:54:58;9.52;;;6.75;;
24559;SDS011;12727;49.934;8.656;2023-04-02T06:57:23;8.20;;;6.20;;
24559;SDS011;12727;49.934;8.656;2023-04-02T06:59:49;8.90;;;6.53;;
24559;SDS011;12727;49.934;8.656;2023-04-02T07:04:48;8.23;;;6.70;;
24559;SDS011;12727;49.934;8.656;2023-04-02T07:07:14;10.45;;;6.20;;
24559;SDS011;12727;49.934;8.656;2023-04-02T07:09:40;9.90;;;6.75;;
24559;SDS011;12727;49.934;8.656;2023-04-02T07:12:10;8.88;;;6.40;;
24559;SDS011;12727;49.934;8.656;2023-04-02T07:14:38;12.15;;;7.45;;
24559;SDS011;12727;49.934;8.656;2023-04-02T07:17:04;11.40;;;7.57;;
24559;SDS011;12727;49.934;8.656;2023-04-02T07:19:30;10.77;;;7.43;;
24559;SDS011;12727;49.934;8.656;2023-04-02T07:21:56;11.82;;;7.72;;
24559;SDS011;12727;49.934;8.656;2023-04-02T07:24:21;10.90;;;6.97;;
24559;SDS011;12727;49.934;8.656;2023-04-02T07:26:47;9.27;;;7.00;;
24559;SDS011;12727;49.934;8.656;2023-04-02T07:29:13;10.50;;;6.63;;
24559;SDS011;12727;49.934;8.656;2023-04-02T07:31:40;8.88;;;7.00;;
24559;SDS011;12727;49.934;8.656;2023-04-02T07:34:06;8.10;;;6.20;;
24559;SDS011;12727;49.934;8.656;2023-04-02T07:36:35;3.10;;;2.20;;
24559;SDS011;12727;49.934;8.656;2023-04-02T07:39:02;1.85;;;1.38;;
24559;SDS011;12727;49.934;8.656;2023-04-02T07:41:28;2.20;;;1.00;;
24559;SDS011;12727;49.934;8.656;2023-04-02T07:43:54;1.50;;;0.63;;
24559;SDS011;12727;49.934;8.656;2023-04-02T07:46:19;3.00;;;0.50;;
24559;SDS011;12727;49.934;8.656;2023-04-02T07:48:47;1.10;;;0.40;;
24559;SDS011;12727;49.934;8.656;2023-04-02T07:51:20;0.38;;;0.30;;
24559;SDS011;12727;49.934;8.656;2023-04-02T07:56:15;0.30;;;0.30;;
24559;SDS011;12727;49.934;8.656;2023-04-02T07:58:42;0.45;;;0.20;;
24559;SDS011;12727;49.934;8.656;2023-04-02T08:01:13;0.50;;;0.38;;
24559;SDS011;12727;49.934;8.656;2023-04-02T08:03:41;0.30;;;0.20;;
24559;SDS011;12727;49.934;8.656;2023-04-02T08:06:06;0.68;;;0.50;;
24559;SDS011;12727;49.934;8.656;2023-04-02T08:08:32;0.30;;;0.20;;
24559;SDS011;12727;49.934;8.656;2023-04-02T08:10:58;0.40;;;0.28;;
24559;SDS011;12727;49.934;8.656;2023-04-02T08:13:26;0.38;;;0.30;;
24559;SDS011;12727;49.934;8.656;2023-04-02T08:16:08;0.85;;;0.40;;
24559;SDS011;12727;49.934;8.656;2023-04-02T08:18:43;0.50;;;0.40;;
24559;SDS011;12727;49.934;8.656;2023-04-02T08:21:11;1.45;;;0.50;;
24559;SDS011;12727;49.934;8.656;2023-04-02T08:23:40;0.60;;;0.38;;
24559;SDS011;12727;49.934;8.656;2023-04-02T08:26:16;1.20;;;0.40;;
24559;SDS011;12727;49.934;8.656;2023-04-02T08:28:42;0.30;;;0.28;;
24559;SDS011;12727;49.934;8.656;2023-04-02T08:31:08;0.80;;;0.38;;
24559;SDS011;12727;49.934;8.656;2023-04-02T08:33:35;0.30;;;0.20;;
24559;SDS011;12727;49.934;8.656;2023-04-02T08:36:00;0.40;;;0.30;;
24559;SDS011;12727;49.934;8.656;2023-04-02T08:38:26;0.55;;;0.30;;
24559;SDS011;12727;49.934;8.656;2023-04-02T08:40:53;0.98;;;0.30;;
24559;SDS011;12727;49.934;8.656;2023-04-02T08:46:08;0.20;;;0.17;;
24559;SDS011;12727;49.934;8.656;2023-04-02T08:48:48;0.50;;;0.30;;
24559;SDS011;12727;49.934;8.656;2023-04-02T08:51:24;1.65;;;0.17;;
24559;SDS011;12727;49.934;8.656;2023-04-02T08:54:06;1.10;;;0.20;;
24559;SDS011;12727;49.934;8.656;2023-04-02T08:56:50;0.40;;;0.20;;
24559;SDS011;12727;49.934;8.656;2023-04-02T09:02:11;1.02;;;0.28;;
24559;SDS011;12727;49.934;8.656;2023-04-02T09:04:49;0.70;;;0.28;;
24559;SDS011;12727;49.934;8.656;2023-04-02T09:07:15;0.40;;;0.35;;
24559;SDS011;12727;49.934;8.656;2023-04-02T09:09:41;0.40;;;0.40;;
24559;SDS011;12727;49.934;8.656;2023-04-02T09:12:20;0.80;;;0.47;;
24559;SDS011;12727;49.934;8.656;2023-04-02T09:17:42;1.65;;;0.45;;
24559;SDS011;12727;49.934;8.656;2023-04-02T09:20:15;1.10;;;0.60;;
24559;SDS011;12727;49.934;8.656;2023-04-02T09:22:45;2.38;;;0.80;;
24559;SDS011;12727;49.934;8.656;2023-04-02T09:25:14;0.70;;;0.60;;
24559;SDS011;12727;49.934;8.656;2023-04-02T09:27:46;1.42;;;0.93;;
24559;SDS011;12727;49.934;8.656;2023-04-02T09:32:43;1.38;;;1.00;;
24559;SDS011;12727;49.934;8.656;2023-04-02T09:35:15;1.35;;;0.80;;
24559;SDS011;12727;49.934;8.656;2023-04-02T09:37:41;1.80;;;0.90;;
24559;SDS011;12727;49.934;8.656;2023-04-02T09:40:30;2.08;;;0.88;;
24559;SDS011;12727;49.934;8.656;2023-04-02T09:43:07;2.35;;;0.60;;
24559;SDS011;12727;49.934;8.656;2023-04-02T09:45:37;2.92;;;1.00;;
24559;SDS011;12727;49.934;8.656;2023-04-02T09:48:21;1.42;;;0.90;;
24559;SDS011;12727;49.934;8.656;2023-04-02T09:56:25;1.50;;;1.20;;
24559;SDS011;12727;49.934;8.656;2023-04-02T09:59:02;1.20;;;0.90;;
24559;SDS011;12727;49.934;8.656;2023-04-02T10:01:38;1.40;;;0.85;;
24559;SDS011;12727;49.934;8.656;2023-04-02T10:04:26;1.58;;;0.90;;
24559;SDS011;12727;49.934;8.656;2023-04-02T10:06:57;2.33;;;1.15;;
24559;SDS011;12727;49.934;8.656;2023-04-02T10:09:27;2.65;;;1.00;;
24559;SDS011;12727;49.934;8.656;2023-04-02T10:12:02;1.60;;;0.90;;
24559;SDS011;12727;49.934;8.656;2023-04-02T10:14:37;1.85;;;1.25;;
24559;SDS011;12727;49.934;8.656;2023-04-02T10:17:19;1.45;;;1.20;;
24559;SDS011;12727;49.934;8.656;2023-04-02T10:19:55;1.40;;;1.00;;
24559;SDS011;12727;49.934;8.656;2023-04-02T10:22:30;2.85;;;1.10;;
24559;SDS011;12727;49.934;8.656;2023-04-02T10:24:57;2.00;;;1.27;;
24559;SDS011;12727;49.934;8.656;2023-04-02T10:27:42;1.63;;;1.00;;
24559;SDS011;12727;49.934;8.656;2023-04-02T10:33:17;1.10;;;0.80;;
24559;SDS011;12727;49.934;8.656;2023-04-02T10:41:27;3.17;;;1.88;;
24559;SDS011;12727;49.934;8.656;2023-04-02T10:51:56;0.73;;;0.60;;
24559;SDS011;12727;49.934;8.656;2023-04-02T10:56:51;2.55;;;0.60;;
24559;SDS011;12727;49.934;8.656;2023-04-02T10:59:29;1.27;;;0.90;;
24559;SDS011;12727;49.934;8.656;2023-04-02T11:01:59;1.85;;;0.80;;
24559;SDS011;12727;49.934;8.656;2023-04-02T11:04:32;1.38;;;1.00;;
24559;SDS011;12727;49.934;8.656;2023-04-02T11:09:32;0.93;;;0.80;;
24559;SDS011;12727;49.934;8.656;2023-04-02T11:12:05;2.38;;;0.90;;
24559;SDS011;12727;49.934;8.656;2023-04-02T11:14:40;0.90;;;0.60;;
24559;SDS011;12727;49.934;8.656;2023-04-02T11:17:11;1.15;;;0.73;;
24559;SDS011;12727;49.934;8.656;2023-04-02T11:19:39;1.58;;;0.80;;
24559;SDS011;12727;49.934;8.656;2023-04-02T11:24:50;1.75;;;1.08;;
24559;SDS011;12727;49.934;8.656;2023-04-02T11:27:19;2.00;;;1.10;;
24559;SDS011;12727;49.934;8.656;2023-04-02T11:30:01;0.80;;;0.80;;
24559;SDS011;12727;49.934;8.656;2023-04-02T11:32:30;2.42;;;0.93;;
24559;SDS011;12727;49.934;8.656;2023-04-02T11:35:00;2.10;;;0.82;;
24559;SDS011;12727;49.934;8.656;2023-04-02T11:37:45;1.17;;;0.77;;
24559;SDS011;12727;49.934;8.656;2023-04-02T11:42:38;1.58;;;0.90;;
24559;SDS011;12727;49.934;8.656;2023-04-02T11:48:24;1.27;;;0.82;;
24559;SDS011;12727;49.934;8.656;2023-04-02T11:50:40;1.05;;;0.80;;
24559;SDS011;12727;49.934;8.656;2023-04-02T11:55:37;0.90;;;0.70;;
24559;SDS011;12727;49.934;8.656;2023-04-02T12:09:20;1.42;;;1.00;;
24559;SDS011;12727;49.934;8.656;2023-04-02T12:11:53;1.10;;;0.90;;
24559;SDS011;12727;49.934;8.656;2023-04-02T12:17:16;0.70;;;0.70;;
24559;SDS011;12727;49.934;8.656;2023-04-02T12:19:58;2.38;;;1.20;;
24559;SDS011;12727;49.934;8.656;2023-04-02T12:24:55;1.20;;;0.90;;
24559;SDS011;12727;49.934;8.656;2023-04-02T12:27:25;1.20;;;1.00;;
24559;SDS011;12727;49.934;8.656;2023-04-02T12:29:53;1.58;;;1.10;;
24559;SDS011;12727;49.934;8.656;2023-04-02T12:32:22;1.80;;;1.02;;
24559;SDS011;12727;49.934;8.656;2023-04-02T12:34:51;1.67;;;1.00;;
24559;SDS011;12727;49.934;8.656;2023-04-02T12:37:20;2.88;;;0.90;;
24559;SDS011;12727;49.934;8.656;2023-04-02T12:39:51;1.13;;;0.90;;
24559;SDS011;12727;49.934;8.656;2023-04-02T12:42:39;2.17;;;1.02;;
24559;SDS011;12727;49.934;8.656;2023-04-02T12:45:05;1.45;;;1.17;;
24559;SDS011;12727;49.934;8.656;2023-04-02T12:47:31;1.52;;;1.17;;
24559;SDS011;12727;49.934;8.656;2023-04-02T12:49:58;1.58;;;1.20;;
24559;SDS011;12727;49.934;8.656;2023-04-02T12:52:25;2.53;;;1.40;;
24559;SDS011;12727;49.934;8.656;2023-04-02T12:55:01;1.60;;;1.20;;
24559;SDS011;12727;49.934;8.656;2023-04-02T12:59:55;1.85;;;1.40;;
24559;SDS011;12727;49.934;8.656;2023-04-02T13:02:26;2.00;;;1.33;;
24559;SDS011;12727;49.934;8.656;2023-04-02T13:04:54;1.70;;;1.50;;
24559;SDS011;12727;49.934;8.656;2023-04-02T13:07:25;2.92;;;1.85;;
24559;SDS011;12727;49.934;8.656;2023-04-02T13:09:53;2.83;;;1.80;;
24559;SDS011;12727;49.934;8.656;2023-04-02T13:12:24;2.17;;;1.65;;
24559;SDS011;12727;49.934;8.656;2023-04-02T13:14:52;2.25;;;1.80;;
24559;SDS011;12727;49.934;8.656;2023-04-02T13:22:53;3.33;;;1.98;;
24559;SDS011;12727;49.934;8.656;2023-04-02T13:25:20;2.10;;;1.80;;
24559;SDS011;12727;49.934;8.656;2023-04-02T13:27:52;2.97;;;1.90;;
24559;SDS011;12727;49.934;8.656;2023-04-02T13:30:22;2.72;;;2.10;;
24559;SDS011;12727;49.934;8.656;2023-04-02T13:32:50;3.97;;;1.92;;
24559;SDS011;12727;49.934;8.656;2023-04-02T13:35:15;2.38;;;1.92;;
24559;SDS011;12727;49.934;8.656;2023-04-02T13:37:41;2.60;;;2.10;;
24559;SDS011;12727;49.934;8.656;2023-04-02T13:40:16;3.67;;;2.50;;
24559;SDS011;12727;49.934;8.656;2023-04-02T13:42:43;2.53;;;2.20;;
24559;SDS011;12727;49.934;8.656;2023-04-02T13:45:32;3.38;;;2.45;;
24559;SDS011;12727;49.934;8.656;2023-04-02T13:48:01;3.88;;;2.42;;
24559;SDS011;12727;49.934;8.656;2023-04-02T13:50:28;3.63;;;2.30;;
24559;SDS011;12727;49.934;8.656;2023-04-02T13:52:56;3.70;;;2.50;;
24559;SDS011;12727;49.934;8.656;2023-04-02T13:55:24;3.25;;;2.60;;
24559;SDS011;12727;49.934;8.656;2023-04-02T13:58:00;4.05;;;2.55;;
24559;SDS011;12727;49.934;8.656;2023-04-02T14:00:25;3.20;;;2.40;;
24559;SDS011;12727;49.934;8.656;2023-04-02T14:02:54;3.08;;;2.58;;
24559;SDS011;12727;49.934;8.656;2023-04-02T14:31:05;4.78;;;3.28;;
24559;SDS011;12727;49.934;8.656;2023-04-02T14:44:51;8.25;;;5.97;;
24559;SDS011;12727;49.934;8.656;2023-04-02T14:47:32;4.47;;;3.87;;
24559;SDS011;12727;49.934;8.656;2023-04-02T14:50:10;4.75;;;3.92;;
24559;SDS011;12727;49.934;8.656;2023-04-02T14:52:41;5.55;;;4.15;;
24559;SDS011;12727;49.934;8.656;2023-04-02T14:55:20;5.53;;;4.13;;
24559;SDS011;12727;49.934;8.656;2023-04-02T14:57:48;7.60;;;4.80;;
24559;SDS011;12727;49.934;8.656;2023-04-02T15:00:34;6.53;;;4.68;;
24559;SDS011;12727;49.934;8.656;2023-04-02T15:03:12;4.97;;;4.25;;
24559;SDS011;12727;49.934;8.656;2023-04-02T15:08:12;8.52;;;5.80;;
24559;SDS011;12727;49.934;8.656;2023-04-02T15:10:53;10.00;;;6.97;;
24559;SDS011;12727;49.934;8.656;2023-04-02T15:13:42;6.53;;;4.80;;
24559;SDS011;12727;49.934;8.656;2023-04-02T15:18:44;5.90;;;4.57;;
24559;SDS011;12727;49.934;8.656;2023-04-02T15:21:23;4.55;;;3.35;;
24559;SDS011;12727;49.934;8.656;2023-04-02T15:24:17;7.88;;;4.65;;
24559;SDS011;12727;49.934;8.656;2023-04-02T15:29:47;4.35;;;3.67;;
24559;SDS011;12727;49.934;8.656;2023-04-02T16:04:36;7.45;;;5.00;;
24559;SDS011;12727;49.934;8.656;2023-04-02T16:12:44;6.40;;;4.60;;
24559;SDS011;12727;49.934;8.656;2023-04-02T16:18:14;6.45;;;4.32;;
24559;SDS011;12727;49.934;8.656;2023-04-02T16:20:48;5.18;;;4.20;;
24559;SDS011;12727;49.934;8.656;2023-04-02T16:23:27;5.18;;;4.18;;
24559;SDS011;12727;49.934;8.656;2023-04-02T16:28:57;5.85;;;4.07;;
24559;SDS011;12727;49.934;8.656;2023-04-02T16:32:12;8.90;;;3.90;;
24559;SDS011;12727;49.934;8.656;2023-04-02T16:40:03;4.47;;;3.10;;
24559;SDS011;12727;49.934;8.656;2023-04-02T16:42:40;9.05;;;5.45;;
24559;SDS011;12727;49.934;8.656;2023-04-02T16:45:29;4.03;;;2.83;;
24559;SDS011;12727;49.934;8.656;2023-04-02T16:52:57;6.78;;;3.40;;
24559;SDS011;12727;49.934;8.656;2023-04-02T16:58:18;4.00;;;2.78;;
24559;SDS011;12727;49.934;8.656;2023-04-02T17:03:43;4.07;;;2.95;;
24559;SDS011;12727;49.934;8.656;2023-04-02T17:06:22;4.85;;;3.08;;
24559;SDS011;12727;49.934;8.656;2023-04-02T17:09:09;4.60;;;2.40;;
24559;SDS011;12727;49.934;8.656;2023-04-02T17:11:48;4.18;;;2.80;;
24559;SDS011;12727;49.934;8.656;2023-04-02T17:17:43;3.88;;;2.60;;
24559;SDS011;12727;49.934;8.656;2023-04-02T17:20:19;5.78;;;2.80;;
24559;SDS011;12727;49.934;8.656;2023-04-02T17:22:47;3.55;;;2.70;;
24559;SDS011;12727;49.934;8.656;2023-04-02T17:25:22;6.13;;;3.03;;
24559;SDS011;12727;49.934;8.656;2023-04-02T17:27:54;4.95;;;3.10;;
24559;SDS011;12727;49.934;8.656;2023-04-02T17:30:25;4.55;;;3.10;;
24559;SDS011;12727;49.934;8.656;2023-04-02T17:33:10;4.30;;;2.85;;
24559;SDS011;12727;49.934;8.656;2023-04-02T17:38:26;4.68;;;2.60;;
24559;SDS011;12727;49.934;8.656;2023-04-02T17:47:03;5.72;;;3.15;;
24559;SDS011;12727;49.934;8.656;2023-04-02T17:52:23;3.25;;;2.67;;
24559;SDS011;12727;49.934;8.656;2023-04-02T18:08:32;5.35;;;3.00;;
24559;SDS011;12727;49.934;8.656;2023-04-02T18:18:55;4.43;;;2.90;;
24559;SDS011;12727;49.934;8.656;2023-04-02T18:21:37;4.78;;;3.13;;
24559;SDS011;12727;49.934;8.656;2023-04-02T18:35:32;3.55;;;2.88;;
24559;SDS011;12727;49.934;8.656;2023-04-02T18:46:48;8.07;;;5.05;;
24559;SDS011;12727;49.934;8.656;2023-04-02T18:51:45;5.30;;;3.17;;
24559;SDS011;12727;49.934;8.656;2023-04-02T18:56:53;4.80;;;2.75;;
24559;SDS011;12727;49.934;8.656;2023-04-02T19:02:26;5.43;;;3.30;;
24559;SDS011;12727;49.934;8.656;2023-04-02T19:05:03;4.32;;;3.38;;
24559;SDS011;12727;49.934;8.656;2023-04-02T19:07:37;4.38;;;3.00;;
24559;SDS011;12727;49.934;8.656;2023-04-02T19:10:20;6.20;;;3.15;;
24559;SDS011;12727;49.934;8.656;2023-04-02T19:15:16;5.43;;;3.42;;
24559;SDS011;12727;49.934;8.656;2023-04-02T19:18:07;4.93;;;3.25;;
24559;SDS011;12727;49.934;8.656;2023-04-02T19:26:39;4.60;;;3.10;;
24559;SDS011;12727;49.934;8.656;2023-04-02T19:29:31;4.38;;;3.15;;
24559;SDS011;12727;49.934;8.656;2023-04-02T19:34:55;4.57;;;3.17;;
24559;SDS011;12727;49.934;8.656;2023-04-02T19:40:51;4.78;;;3.13;;
24559;SDS011;12727;49.934;8.656;2023-04-02T19:43:23;4.50;;;3.05;;
24559;SDS011;12727;49.934;8.656;2023-04-02T19:45:49;3.58;;;2.80;;
24559;SDS011;12727;49.934;8.656;2023-04-02T19:48:21;3.80;;;2.70;;
24559;SDS011;12727;49.934;8.656;2023-04-02T19:50:50;3.67;;;3.13;;
24559;SDS011;12727;49.934;8.656;2023-04-02T19:53:16;4.40;;;3.05;;
24559;SDS011;12727;49.934;8.656;2023-04-02T19:55:42;5.00;;;3.22;;
24559;SDS011;12727;49.934;8.656;2023-04-02T19:58:25;3.60;;;2.55;;
24559;SDS011;12727;49.934;8.656;2023-04-02T20:00:53;4.15;;;2.80;;
24559;SDS011;12727;49.934;8.656;2023-04-02T20:03:18;5.05;;;2.78;;
24559;SDS011;12727;49.934;8.656;2023-04-02T20:05:44;5.07;;;3.10;;
24559;SDS011;12727;49.934;8.656;2023-04-02T20:08:10;4.22;;;2.83;;
24559;SDS011;12727;49.934;8.656;2023-04-02T20:10:36;3.97;;;3.00;;
24559;SDS011;12727;49.934;8.656;2023-04-02T20:13:01;4.32;;;2.40;;
24559;SDS011;12727;49.934;8.656;2023-04-02T20:15:27;4.05;;;2.47;;
24559;SDS011;12727;49.934;8.656;2023-04-02T20:17:53;7.25;;;3.00;;
24559;SDS011;12727;49.934;8.656;2023-04-02T20:20:18;3.05;;;2.58;;
24559;SDS011;12727;49.934;8.656;2023-04-02T20:22:44;4.70;;;3.08;;
24559;SDS011;12727;49.934;8.656;2023-04-02T20:25:10;4.00;;;2.60;;
24559;SDS011;12727;49.934;8.656;2023-04-02T20:27:35;3.80;;;2.50;;
24559;SDS011;12727;49.934;8.656;2023-04-02T20:30:01;3.35;;;2.42;;
24559;SDS011;12727;49.934;8.656;2023-04-02T20:32:27;4.10;;;2.42;;
24559;SDS011;12727;49.934;8.656;2023-04-02T20:34:53;3.63;;;2.60;;
24559;SDS011;12727;49.934;8.656;2023-04-02T20:37:20;3.08;;;2.33;;
24559;SDS011;12727;49.934;8.656;2023-04-02T20:39:46;3.83;;;2.70;;
24559;SDS011;12727;49.934;8.656;2023-04-02T20:42:11;4.13;;;2.50;;
24559;SDS011;12727;49.934;8.656;2023-04-02T20:44:38;6.18;;;2.50;;
24559;SDS011;12727;49.934;8.656;2023-04-02T20:47:04;4.13;;;2.80;;
24559;SDS011;12727;49.934;8.656;2023-04-02T20:49:31;4.68;;;2.60;;
24559;SDS011;12727;49.934;8.656;2023-04-02T20:51:57;5.07;;;2.63;;
24559;SDS011;12727;49.934;8.656;2023-04-02T20:54:23;4.55;;;2.70;;
24559;SDS011;12727;49.934;8.656;2023-04-02T20:56:48;5.80;;;2.55;;
24559;SDS011;12727;49.934;8.656;2023-04-02T20:59:14;5.40;;;2.33;;
24559;SDS011;12727;49.934;8.656;2023-04-02T21:01:40;4.35;;;2.80;;
24559;SDS011;12727;49.934;8.656;2023-04-02T21:04:06;3.90;;;2.35;;